createdAt,value
2023-05-07T00:01:47.090Z,96504.13
2023-05-07T00:04:15.413Z,96503.59
2023-05-07T00:06:43.578Z,96501.94
2023-05-07T00:09:13.542Z,96496.91
2023-05-07T00:11:41.620Z,96501.63
2023-05-07T00:14:09.692Z,96502.22
2023-05-07T00:16:37.770Z,96506.94
2023-05-07T00:19:06.464Z,96505.66
2023-05-07T00:21:34.588Z,96488.16
2023-05-07T00:24:02.623Z,96492.09
2023-05-07T00:26:32.008Z,96492.41
2023-05-07T00:29:00.558Z,96489.91
2023-05-07T00:31:28.630Z,96490.22
2023-05-07T00:33:56.830Z,96484.59
2023-05-07T00:36:24.901Z,96489.66
2023-05-07T00:38:53.093Z,96481.03
2023-05-07T00:41:21.203Z,96483.41
2023-05-07T00:43:52.488Z,96477.97
2023-05-07T00:46:23.383Z,96480.38
2023-05-07T00:48:52.790Z,96477.41
2023-05-07T00:51:21.697Z,96480.06
2023-05-07T00:53:49.962Z,96473.47
2023-05-07T00:56:18.541Z,96474.75
2023-05-07T00:58:46.679Z,96473.06
2023-05-07T01:01:16.893Z,96478.09
2023-05-07T01:03:45.350Z,96479.75
2023-05-07T01:06:17.639Z,96472.25
2023-05-07T01:08:46.972Z,96469.84
2023-05-07T01:11:16.016Z,96468.47
2023-05-07T01:13:44.629Z,96468.94
2023-05-07T01:16:12.741Z,96468.63
2023-05-07T01:18:42.854Z,96474.72
2023-05-07T01:21:13.920Z,96469.63
2023-05-07T01:23:45.262Z,96469.63
2023-05-07T01:26:13.480Z,96473.56
2023-05-07T01:29:06.748Z,96474.53
2023-05-07T01:32:28.468Z,96472.50
2023-05-07T01:35:00.152Z,96463.72
2023-05-07T01:38:26.624Z,96467.09
2023-05-07T01:41:01.966Z,96472.63
2023-05-07T01:45:10.543Z,96472.88
2023-05-07T01:48:34.770Z,96474.53
2023-05-07T01:51:04.136Z,96470.38
2023-05-07T01:53:38.442Z,96480.00
2023-05-07T01:56:33.722Z,96479.75
2023-05-07T01:59:02.936Z,96474.38
2023-05-07T02:01:35.040Z,96484.25
2023-05-07T02:04:27.957Z,96476.31
2023-05-07T02:06:56.691Z,96469.41
2023-05-07T02:09:25.300Z,96471.13
2023-05-07T02:11:55.049Z,96465.84
2023-05-07T02:14:33.645Z,96469.63
2023-05-07T02:17:01.661Z,96468.56
2023-05-07T02:19:29.879Z,96467.28
2023-05-07T02:21:58.255Z,96465.91
2023-05-07T02:24:31.649Z,96471.91
2023-05-07T02:27:06.438Z,96470.31
2023-05-07T02:29:35.581Z,96472.41
2023-05-07T02:32:04.148Z,96467.34
2023-05-07T02:34:36.399Z,96468.34
2023-05-07T02:37:04.453Z,96473.34
2023-05-07T02:39:32.478Z,96473.78
2023-05-07T02:42:02.164Z,96467.72
2023-05-07T02:44:32.398Z,96468.72
2023-05-07T02:47:00.516Z,96471.75
2023-05-07T02:49:34.257Z,96470.16
2023-05-07T02:52:03.003Z,96470.38
2023-05-07T02:54:31.099Z,96465.66
2023-05-07T02:56:59.507Z,96466.34
2023-05-07T02:59:30.106Z,96463.63
2023-05-07T03:01:58.916Z,96456.13
2023-05-07T03:04:32.097Z,96455.59
2023-05-07T03:07:00.313Z,96446.59
2023-05-07T03:09:28.412Z,96440.50
2023-05-07T03:11:56.660Z,96440.13
2023-05-07T03:14:24.967Z,96444.75
2023-05-07T03:16:54.574Z,96447.72
2023-05-07T03:19:22.608Z,96445.06
2023-05-07T03:21:50.783Z,96448.66
2023-05-07T03:24:18.901Z,96445.69
2023-05-07T03:26:46.888Z,96452.13
2023-05-07T03:29:15.077Z,96450.53
2023-05-07T03:31:43.163Z,96447.06
2023-05-07T03:34:12.684Z,96434.75
2023-05-07T03:36:40.785Z,96441.31
2023-05-07T03:39:11.528Z,96446.97
2023-05-07T03:41:42.328Z,96445.38
2023-05-07T03:44:10.938Z,96440.19
2023-05-07T03:46:40.160Z,96447.66
2023-05-07T03:49:10.296Z,96446.72
2023-05-07T03:51:39.808Z,96441.44
2023-05-07T03:54:13.484Z,96437.78
2023-05-07T03:56:46.034Z,96436.16
2023-05-07T03:59:14.508Z,96446.19
2023-05-07T04:01:45.294Z,96446.63
2023-05-07T04:04:18.032Z,96440.28
2023-05-07T04:06:47.583Z,96454.47
2023-05-07T04:09:15.857Z,96463.22
2023-05-07T04:11:44.282Z,96464.22
2023-05-07T04:14:13.449Z,96458.38
2023-05-07T04:16:41.718Z,96458.47
2023-05-07T04:19:10.484Z,96466.09
2023-05-07T04:21:40.039Z,96468.50
2023-05-07T04:29:59.782Z,96463.19
2023-05-07T04:32:27.887Z,96465.72
2023-05-07T04:34:56.291Z,96467.44
2023-05-07T04:37:24.764Z,96471.34
2023-05-07T04:39:54.365Z,96478.81
2023-05-07T04:42:25.123Z,96474.06
2023-05-07T04:44:55.776Z,96472.81
2023-05-07T04:47:25.631Z,96469.16
2023-05-07T04:49:54.148Z,96471.78
2023-05-07T04:52:22.384Z,96469.16
2023-05-07T04:54:50.664Z,96473.41
2023-05-07T04:57:20.379Z,96472.69
2023-05-07T04:59:49.464Z,96478.47
2023-05-07T05:02:20.608Z,96473.50
2023-05-07T05:04:49.480Z,96476.75
2023-05-07T05:07:17.789Z,96481.81
2023-05-07T05:09:46.035Z,96498.03
2023-05-07T05:12:14.179Z,96500.44
2023-05-07T05:14:43.930Z,96500.22
2023-05-07T05:17:12.624Z,96502.72
2023-05-07T05:19:40.852Z,96495.59
2023-05-07T05:22:09.162Z,96496.06
2023-05-07T05:24:37.325Z,96501.94
2023-05-07T05:27:06.299Z,96503.88
2023-05-07T05:29:34.414Z,96498.13
2023-05-07T05:32:04.524Z,96500.75
2023-05-07T05:34:34.123Z,96507.44
2023-05-07T05:37:02.789Z,96514.41
2023-05-07T05:39:30.889Z,96517.66
2023-05-07T05:41:59.147Z,96520.31
2023-05-07T05:44:27.380Z,96511.41
2023-05-07T05:46:58.533Z,96511.75
2023-05-07T05:49:28.127Z,96508.63
2023-05-07T05:51:56.795Z,96510.81
2023-05-07T05:54:26.783Z,96507.53
2023-05-07T05:56:54.881Z,96508.75
2023-05-07T05:59:23.250Z,96512.66
2023-05-07T06:01:51.703Z,96513.31
2023-05-07T06:04:20.110Z,96518.72
2023-05-07T06:06:49.831Z,96525.16
2023-05-07T06:09:18.392Z,96526.38
2023-05-07T06:11:46.699Z,96527.28
2023-05-07T06:14:15.569Z,96519.66
2023-05-07T06:16:44.541Z,96513.44
2023-05-07T06:19:12.729Z,96512.44
2023-05-07T06:21:42.211Z,96520.47
2023-05-07T06:24:12.243Z,96519.84
2023-05-07T06:26:41.295Z,96516.22
2023-05-07T06:29:34.095Z,96517.50
2023-05-07T06:32:34.229Z,96523.69
2023-05-07T06:35:27.353Z,96526.44
2023-05-07T06:37:56.451Z,96518.06
2023-05-07T06:40:30.901Z,96516.53
2023-05-07T06:49:07.396Z,96523.78
2023-05-07T06:51:35.852Z,96528.44
2023-05-07T06:54:05.696Z,96528.34
2023-05-07T06:56:36.786Z,96513.69
2023-05-07T06:59:06.403Z,96520.25
2023-05-07T07:01:38.766Z,96512.97
2023-05-07T07:04:07.786Z,96518.97
2023-05-07T07:06:36.434Z,96514.56
2023-05-07T07:09:09.726Z,96516.53
2023-05-07T07:12:04.174Z,96513.44
2023-05-07T07:14:32.841Z,96504.00
2023-05-07T07:17:01.014Z,96513.66
2023-05-07T07:19:29.609Z,96518.38
2023-05-07T07:21:58.853Z,96516.06
2023-05-07T07:24:26.919Z,96516.16
2023-05-07T07:27:00.417Z,96519.75
2023-05-07T07:29:29.233Z,96519.03
2023-05-07T07:31:58.041Z,96514.06
2023-05-07T07:34:27.894Z,96515.00
2023-05-07T07:36:59.252Z,96512.66
2023-05-07T07:39:52.632Z,96518.59
2023-05-07T07:42:23.076Z,96514.63
2023-05-07T07:44:51.258Z,96518.69
2023-05-07T07:47:23.130Z,96523.22
2023-05-07T07:49:52.668Z,96525.13
2023-05-07T07:52:21.063Z,96517.72
2023-05-07T07:54:49.471Z,96520.38
2023-05-07T07:57:17.912Z,96525.47
2023-05-07T07:59:47.557Z,96533.47
2023-05-07T08:02:17.770Z,96517.22
2023-05-07T08:04:46.326Z,96522.56
2023-05-07T08:07:14.893Z,96526.63
2023-05-07T08:09:46.072Z,96519.22
2023-05-07T08:12:14.255Z,96521.63
2023-05-07T08:14:42.801Z,96517.97
2023-05-07T08:17:12.355Z,96525.19
2023-05-07T08:19:40.504Z,96521.47
2023-05-07T08:22:12.926Z,96524.69
2023-05-07T08:24:43.931Z,96523.34
2023-05-07T08:27:13.378Z,96520.44
2023-05-07T08:29:43.306Z,96524.44
2023-05-07T08:32:12.663Z,96522.63
2023-05-07T08:34:40.761Z,96527.72
2023-05-07T08:37:38.911Z,96515.44
2023-05-07T08:40:11.468Z,96518.91
2023-05-07T08:42:43.421Z,96513.56
2023-05-07T08:45:12.951Z,96523.41
2023-05-07T08:47:52.613Z,96519.94
2023-05-07T08:50:23.270Z,96523.13
2023-05-07T08:52:52.255Z,96519.06
2023-05-07T08:55:22.075Z,96512.09
2023-05-07T08:57:51.039Z,96522.47
2023-05-07T09:00:19.773Z,96522.41
2023-05-07T09:02:52.968Z,96515.41
2023-05-07T09:05:21.580Z,96514.50
2023-05-07T09:07:53.940Z,96513.94
2023-05-07T09:10:23.952Z,96520.03
2023-05-07T09:12:53.208Z,96518.38
2023-05-07T09:15:22.331Z,96509.50
2023-05-07T09:17:51.931Z,96506.69
2023-05-07T09:20:20.688Z,96504.22
2023-05-07T09:22:48.731Z,96495.63
2023-05-07T09:25:30.473Z,96488.69
2023-05-07T09:27:59.543Z,96497.88
2023-05-07T09:30:30.808Z,96490.63
2023-05-07T09:33:04.474Z,96501.03
2023-05-07T09:35:34.707Z,96495.28
2023-05-07T09:38:09.785Z,96497.00
2023-05-07T09:40:38.713Z,96495.84
2023-05-07T09:43:13.144Z,96494.19
2023-05-07T09:45:46.461Z,96495.84
2023-05-07T09:48:20.415Z,96491.00
2023-05-07T09:50:53.526Z,96488.81
2023-05-07T09:53:25.761Z,96499.00
2023-05-07T09:55:55.383Z,96493.06
2023-05-07T09:58:24.884Z,96487.31
2023-05-07T10:00:54.477Z,96487.25
2023-05-07T10:03:26.308Z,96481.44
2023-05-07T10:06:01.621Z,96478.47
2023-05-07T10:08:33.398Z,96479.03
2023-05-07T10:11:06.129Z,96475.03
2023-05-07T10:13:36.912Z,96468.38
2023-05-07T10:16:56.448Z,96477.44
2023-05-07T10:19:26.460Z,96477.47
2023-05-07T10:22:08.174Z,96469.16
2023-05-07T10:24:42.443Z,96478.09
2023-05-07T10:27:17.872Z,96477.06
2023-05-07T10:30:02.804Z,96479.28
2023-05-07T10:32:41.731Z,96479.38
2023-05-07T10:35:20.599Z,96480.53
2023-05-07T10:37:50.793Z,96471.47
2023-05-07T10:40:22.240Z,96477.97
2023-05-07T10:43:00.400Z,96472.63
2023-05-07T10:45:31.544Z,96479.91
2023-05-07T10:48:29.029Z,96475.06
2023-05-07T10:51:24.625Z,96475.19
2023-05-07T10:54:27.873Z,96472.78
2023-05-07T10:57:40.648Z,96467.25
2023-05-07T11:00:49.361Z,96472.91
2023-05-07T11:03:30.214Z,96466.50
2023-05-07T11:06:36.361Z,96473.47
2023-05-07T11:09:34.282Z,96469.78
2023-05-07T11:12:53.057Z,96468.25
2023-05-07T11:15:52.846Z,96473.59
2023-05-07T11:22:09.819Z,96467.50
2023-05-07T11:24:45.018Z,96467.78
2023-05-07T11:27:15.417Z,96473.66
2023-05-07T11:29:49.342Z,96474.75
2023-05-07T11:32:17.983Z,96476.34
2023-05-07T11:34:54.252Z,96479.59
2023-05-07T11:37:25.861Z,96469.94
2023-05-07T11:40:08.441Z,96472.94
2023-05-07T11:42:38.884Z,96471.88
2023-05-07T11:45:10.462Z,96472.69
2023-05-07T11:47:38.802Z,96483.66
2023-05-07T11:50:11.963Z,96487.16
2023-05-07T11:52:41.503Z,96490.59
2023-05-07T11:55:10.951Z,96487.94
2023-05-07T11:57:39.597Z,96498.38
2023-05-07T12:00:10.446Z,96508.78
2023-05-07T12:02:42.879Z,96509.59
2023-05-07T12:05:11.580Z,96509.34
2023-05-07T12:07:42.318Z,96512.78
2023-05-07T12:10:13.072Z,96507.47
2023-05-07T12:12:42.787Z,96514.69
2023-05-07T12:15:12.349Z,96517.13
2023-05-07T12:17:42.025Z,96513.16
2023-05-07T12:20:11.584Z,96518.50
2023-05-07T12:22:41.381Z,96506.22
2023-05-07T12:25:10.992Z,96510.22
2023-05-07T12:27:41.017Z,96513.72
2023-05-07T12:30:13.411Z,96510.00
2023-05-07T12:32:42.408Z,96515.63
2023-05-07T12:35:11.089Z,96513.47
2023-05-07T12:37:40.660Z,96510.31
2023-05-07T12:40:12.123Z,96513.78
2023-05-07T12:42:43.339Z,96517.56
2023-05-07T12:45:12.907Z,96514.63
2023-05-07T12:47:41.437Z,96502.06
2023-05-07T12:50:12.907Z,96487.38
2023-05-07T12:52:42.571Z,96491.63
2023-05-07T12:55:15.731Z,96502.59
2023-05-07T12:57:47.425Z,96532.19
2023-05-07T13:00:17.316Z,96543.41
2023-05-07T13:02:47.484Z,96548.91
2023-05-07T13:06:06.941Z,96556.53
2023-05-07T13:08:42.430Z,96556.03
2023-05-07T13:11:12.852Z,96554.94
2023-05-07T13:13:43.168Z,96561.59
2023-05-07T13:16:13.398Z,96561.81
2023-05-07T13:18:44.767Z,96568.44
2023-05-07T13:21:14.161Z,96564.44
2023-05-07T13:23:43.776Z,96556.94
2023-05-07T13:26:25.793Z,96567.00
2023-05-07T13:28:55.475Z,96571.25
2023-05-07T13:31:23.665Z,96579.75
2023-05-07T13:33:51.777Z,96590.91
2023-05-07T13:36:19.826Z,96591.72
2023-05-07T13:38:49.470Z,96586.41
2023-05-07T13:41:18.490Z,96592.56
2023-05-07T13:43:46.633Z,96594.44
2023-05-07T13:46:14.798Z,96587.00
2023-05-07T13:48:43.742Z,96587.22
2023-05-07T13:51:12.851Z,96582.41
2023-05-07T13:53:41.115Z,96585.34
2023-05-07T13:56:11.822Z,96583.75
2023-05-07T13:58:51.997Z,96582.94
2023-05-07T14:01:24.856Z,96585.06
2023-05-07T14:03:53.177Z,96588.78
2023-05-07T14:06:21.400Z,96588.78
2023-05-07T14:08:50.616Z,96592.25
2023-05-07T14:11:20.018Z,96596.19
2023-05-07T14:13:48.102Z,96601.53
2023-05-07T14:16:17.625Z,96600.97
2023-05-07T14:18:45.781Z,96596.16
2023-05-07T14:21:14.151Z,96604.69
2023-05-07T14:23:42.233Z,96596.69
2023-05-07T14:26:12.822Z,96593.75
2023-05-07T14:28:47.070Z,96582.78
2023-05-07T14:31:18.939Z,96586.53
2023-05-07T14:33:47.032Z,96592.63
2023-05-07T14:36:16.405Z,96581.34
2023-05-07T14:38:44.502Z,96570.38
2023-05-07T14:41:13.548Z,96575.97
2023-05-07T14:43:42.953Z,96574.13
2023-05-07T14:46:11.077Z,96578.59
2023-05-07T14:48:39.816Z,96566.59
2023-05-07T14:51:07.876Z,96564.75
2023-05-07T14:53:35.938Z,96567.06
2023-05-07T14:56:04.291Z,96564.41
2023-05-07T14:58:32.312Z,96567.06
2023-05-07T15:01:02.076Z,96560.66
2023-05-07T15:03:30.529Z,96557.47
2023-05-07T15:05:58.793Z,96551.34
2023-05-07T15:08:26.865Z,96551.59
2023-05-07T15:10:59.069Z,96546.28
2023-05-07T15:13:27.267Z,96540.41
2023-05-07T15:15:55.444Z,96547.09
2023-05-07T15:18:25.333Z,96536.72
2023-05-07T15:20:53.379Z,96537.28
2023-05-07T15:23:21.424Z,96538.63
2023-05-07T15:25:52.511Z,96541.53
2023-05-07T15:28:21.277Z,96550.34
2023-05-07T15:30:49.646Z,96548.44
2023-05-07T15:33:17.799Z,96559.66
2023-05-07T15:35:47.410Z,96570.78
2023-05-07T15:38:15.781Z,96570.28
2023-05-07T15:40:43.889Z,96572.69
2023-05-07T15:43:14.272Z,96571.69
2023-05-07T15:45:44.348Z,96575.41
2023-05-07T15:48:12.800Z,96582.31
2023-05-07T15:50:41.204Z,96579.66
2023-05-07T15:53:10.709Z,96579.41
2023-05-07T15:55:38.877Z,96584.19
2023-05-07T15:58:07.161Z,96590.31
2023-05-07T16:00:36.552Z,96596.94
2023-05-07T16:03:05.196Z,96590.84
2023-05-07T16:05:33.531Z,96596.16
2023-05-07T16:08:01.649Z,96592.22
2023-05-07T16:10:31.749Z,96598.66
2023-05-07T16:13:00.000Z,96605.06
2023-05-07T16:15:28.176Z,96614.09
2023-05-07T16:17:58.294Z,96614.16
2023-05-07T16:20:30.958Z,96614.72
2023-05-07T16:22:59.648Z,96611.28
2023-05-07T16:25:27.789Z,96619.25
2023-05-07T16:27:57.282Z,96625.94
2023-05-07T16:30:25.614Z,96627.28
2023-05-07T16:32:53.760Z,96626.78
2023-05-07T16:35:22.237Z,96628.91
2023-05-07T16:37:50.334Z,96626.50
2023-05-07T16:40:19.695Z,96628.66
2023-05-07T16:42:47.915Z,96625.72
2023-05-07T16:45:18.760Z,96629.16
2023-05-07T16:47:47.383Z,96633.47
2023-05-07T16:50:15.780Z,96638.72
2023-05-07T16:52:44.570Z,96641.91
2023-05-07T16:55:12.910Z,96643.03
2023-05-07T16:57:41.196Z,96647.78
2023-05-07T17:00:11.746Z,96650.19
2023-05-07T17:02:41.450Z,96645.13
2023-05-07T17:05:10.812Z,96647.78
2023-05-07T17:07:39.685Z,96648.84
2023-05-07T17:10:09.248Z,96655.53
2023-05-07T17:12:38.050Z,96657.38
2023-05-07T17:15:07.218Z,96663.25
2023-05-07T17:17:36.767Z,96658.19
2023-05-07T17:20:08.049Z,96655.28
2023-05-07T17:22:36.629Z,96651.44
2023-05-07T17:25:04.984Z,96652.56
2023-05-07T17:27:35.099Z,96657.81
2023-05-07T17:30:03.383Z,96659.94
2023-05-07T17:32:32.812Z,96659.13
2023-05-07T17:35:00.903Z,96661.78
2023-05-07T17:37:30.465Z,96671.09
2023-05-07T17:39:58.472Z,96664.94
2023-05-07T17:42:26.546Z,96672.16
2023-05-07T17:44:55.859Z,96664.16
2023-05-07T17:47:24.053Z,96674.31
2023-05-07T17:49:52.536Z,96674.56
2023-05-07T17:52:20.815Z,96671.34
2023-05-07T17:54:50.251Z,96668.91
2023-05-07T17:57:18.657Z,96672.34
2023-05-07T17:59:47.182Z,96672.34
2023-05-07T18:02:15.285Z,96684.00
2023-05-07T18:04:43.386Z,96680.81
2023-05-07T18:07:11.591Z,96686.13
2023-05-07T18:09:39.752Z,96688.22
2023-05-07T18:12:09.318Z,96695.44
2023-05-07T18:14:37.684Z,96695.91
2023-05-07T18:17:05.913Z,96698.56
2023-05-07T18:19:34.016Z,96702.31
2023-05-07T18:22:02.011Z,96699.06
2023-05-07T18:24:30.064Z,96705.47
2023-05-07T18:26:58.150Z,96707.56
2023-05-07T18:29:27.564Z,96717.41
2023-05-07T18:31:55.671Z,96717.66
2023-05-07T18:34:23.732Z,96720.56
2023-05-07T18:36:51.757Z,96722.41
2023-05-07T18:39:19.865Z,96714.91
2023-05-07T18:41:48.864Z,96721.88
2023-05-07T18:44:17.081Z,96719.47
2023-05-07T18:46:47.839Z,96713.88
2023-05-07T18:49:16.319Z,96714.88
2023-05-07T18:51:44.960Z,96721.06
2023-05-07T18:54:13.238Z,96725.88
2023-05-07T18:56:42.532Z,96721.06
2023-05-07T18:59:11.931Z,96728.00
2023-05-07T19:01:41.297Z,96728.44
2023-05-07T19:04:12.109Z,96737.47
2023-05-07T19:06:40.395Z,96746.25
2023-05-07T19:09:08.377Z,96747.06
2023-05-07T19:11:37.564Z,96745.94
2023-05-07T19:14:30.116Z,96757.09
2023-05-07T19:16:58.424Z,96751.78
2023-05-07T19:19:28.077Z,96765.38
2023-05-07T19:21:56.110Z,96763.19
2023-05-07T19:24:24.206Z,96758.94
2023-05-07T19:26:52.215Z,96765.56
2023-05-07T19:29:21.079Z,96767.41
2023-05-07T19:31:49.216Z,96772.97
2023-05-07T19:34:17.297Z,96777.50
2023-05-07T19:36:46.660Z,96783.31
2023-05-07T19:39:14.836Z,96783.53
2023-05-07T19:41:43.696Z,96796.34
2023-05-07T19:44:11.837Z,96800.84
2023-05-07T19:46:44.907Z,96801.59
2023-05-07T19:49:13.323Z,96806.31
2023-05-07T19:51:41.548Z,96807.38
2023-05-07T19:54:11.137Z,96807.84
2023-05-07T19:56:41.956Z,96818.25
2023-05-07T19:59:10.285Z,96817.44
2023-05-07T20:01:39.865Z,96818.03
2023-05-07T20:04:08.046Z,96822.53
2023-05-07T20:06:36.161Z,96826.78
2023-05-07T20:09:04.475Z,96825.78
2023-05-07T20:11:34.264Z,96820.47
2023-05-07T20:14:05.791Z,96820.69
2023-05-07T20:16:34.118Z,96831.31
2023-05-07T20:19:04.560Z,96834.44
2023-05-07T20:21:32.812Z,96832.84
2023-05-07T20:24:01.018Z,96840.00
2023-05-07T20:26:29.045Z,96833.56
2023-05-07T20:28:58.489Z,96834.88
2023-05-07T20:31:26.639Z,96835.34
2023-05-07T20:33:54.669Z,96837.44
2023-05-07T20:36:25.184Z,96839.28
2023-05-07T20:38:53.492Z,96839.28
2023-05-07T20:41:24.675Z,96836.16
2023-05-07T20:43:52.956Z,96837.53
2023-05-07T20:46:23.179Z,96839.38
2023-05-07T20:48:52.102Z,96848.41
2023-05-07T20:51:20.250Z,96845.50
2023-05-07T20:53:48.277Z,96841.78
2023-05-07T20:56:16.440Z,96843.38
2023-05-07T20:58:44.560Z,96847.69
2023-05-07T21:01:12.674Z,96842.25
2023-05-07T21:03:42.064Z,96851.63
2023-05-07T21:06:10.142Z,96848.63
2023-05-07T21:08:38.154Z,96842.03
2023-05-07T21:11:10.067Z,96851.63
2023-05-07T21:13:38.172Z,96855.81
2023-05-07T21:16:06.569Z,96857.44
2023-05-07T21:18:38.591Z,96857.09
2023-05-07T21:21:12.337Z,96856.06
2023-05-07T21:23:40.449Z,96854.94
2023-05-07T21:26:08.527Z,96856.78
2023-05-07T21:28:36.625Z,96852.28
2023-05-07T21:31:04.694Z,96853.31
2023-05-07T21:33:32.837Z,96847.91
2023-05-07T21:36:00.862Z,96847.91
2023-05-07T21:38:30.403Z,96851.16
2023-05-07T21:40:59.545Z,96850.03
2023-05-07T21:43:27.579Z,96853.16
2023-05-07T21:45:55.699Z,96850.91
2023-05-07T21:48:23.872Z,96849.06
2023-05-07T21:51:02.025Z,96851.44
2023-05-07T21:53:31.876Z,96849.13
2023-05-07T21:56:02.124Z,96855.00
2023-05-07T21:58:31.347Z,96853.69
2023-05-07T22:01:00.870Z,96856.34
2023-05-07T22:03:29.075Z,96859.03
2023-05-07T22:05:57.182Z,96852.09
2023-05-07T22:08:26.060Z,96849.44
2023-05-07T22:10:55.727Z,96847.84
2023-05-07T22:13:23.932Z,96852.56
2023-05-07T22:15:57.279Z,96850.72
2023-05-07T22:18:26.745Z,96852.03
2023-05-07T22:20:54.960Z,96847.03
2023-05-07T22:23:23.237Z,96854.69
2023-05-07T22:25:51.290Z,96850.41
2023-05-07T22:28:21.375Z,96850.97
2023-05-07T22:30:49.457Z,96852.25
2023-05-07T22:33:17.514Z,96852.50
2023-05-07T22:35:45.561Z,96855.72
2023-05-07T22:38:13.624Z,96854.91
2023-05-07T22:40:42.210Z,96857.03
2023-05-07T22:43:10.232Z,96859.69
2023-05-07T22:45:39.654Z,96853.06
2023-05-07T22:48:08.142Z,96857.56
2023-05-07T22:50:38.601Z,96856.75
2023-05-07T22:53:06.914Z,96859.91
2023-05-07T22:55:35.664Z,96851.59
2023-05-07T22:58:03.682Z,96848.94
2023-05-07T23:00:31.935Z,96849.75
2023-05-07T23:03:01.321Z,96854.84
2023-05-07T23:05:29.482Z,96848.72
2023-05-07T23:07:58.243Z,96851.94
2023-05-07T23:10:26.362Z,96852.72
2023-05-07T23:12:54.433Z,96851.94
2023-05-07T23:15:22.867Z,96853.22
2023-05-07T23:17:51.054Z,96839.13
2023-05-07T23:20:20.682Z,96843.97
2023-05-07T23:22:48.726Z,96846.63
2023-05-07T23:25:18.081Z,96846.28
2023-05-07T23:27:46.184Z,96849.19
2023-05-07T23:30:15.834Z,96847.09
2023-05-07T23:32:43.895Z,96847.03
2023-05-07T23:35:15.330Z,96845.97
2023-05-07T23:37:44.787Z,96849.41
2023-05-07T23:40:15.259Z,96843.88
2023-05-07T23:42:43.266Z,96845.16
2023-05-07T23:45:13.358Z,96848.16
2023-05-07T23:47:41.588Z,96842.97
2023-05-07T23:50:12.603Z,96842.19
2023-05-07T23:52:40.870Z,96842.41
2023-05-07T23:55:16.878Z,96850.94
2023-05-07T23:57:47.090Z,96845.91
